createdAt,value
2024-03-05T00:01:10.417Z,13.80
2024-03-05T00:03:37.479Z,13.80
2024-03-05T00:08:50.418Z,13.70
2024-03-05T00:11:17.620Z,13.80
2024-03-05T00:13:44.715Z,13.70
2024-03-05T00:16:11.713Z,13.70
2024-03-05T00:18:38.730Z,13.70
2024-03-05T00:21:07.829Z,13.70
2024-03-05T00:23:34.848Z,13.70
2024-03-05T00:26:01.817Z,13.70
2024-03-05T00:28:29.185Z,13.70
2024-03-05T00:30:56.228Z,13.70
2024-03-05T00:33:23.173Z,13.70
2024-03-05T00:35:50.309Z,13.70
2024-03-05T00:38:25.121Z,13.70
2024-03-05T00:40:59.895Z,13.60
2024-03-05T00:43:27.011Z,13.60
2024-03-05T00:45:54.161Z,13.70
2024-03-05T00:48:21.182Z,13.60
2024-03-05T00:50:48.204Z,13.60
2024-03-05T00:53:15.296Z,13.60
2024-03-05T00:55:43.851Z,13.60
2024-03-05T00:58:10.946Z,13.60
2024-03-05T01:00:38.034Z,13.60
2024-03-05T01:03:05.612Z,13.60
2024-03-05T01:05:32.676Z,13.60
2024-03-05T01:07:59.736Z,13.60
2024-03-05T01:10:26.894Z,13.60
2024-03-05T01:12:55.349Z,13.60
2024-03-05T01:15:22.382Z,13.60
2024-03-05T01:17:49.428Z,13.60
2024-03-05T01:20:16.994Z,13.60
2024-03-05T01:22:44.404Z,13.60
2024-03-05T01:25:11.643Z,13.60
2024-03-05T01:27:38.988Z,13.60
2024-03-05T01:30:09.761Z,13.60
2024-03-05T01:32:36.902Z,13.60
2024-03-05T01:35:04.303Z,13.50
2024-03-05T01:37:31.400Z,13.50
2024-03-05T01:39:58.443Z,13.50
2024-03-05T01:42:25.389Z,13.50
2024-03-05T01:44:52.568Z,13.50
2024-03-05T01:47:21.010Z,13.40
2024-03-05T01:49:48.022Z,13.40
2024-03-05T01:52:15.524Z,13.40
2024-03-05T01:54:43.621Z,13.40
2024-03-05T01:57:10.695Z,13.40
2024-03-05T01:59:39.470Z,13.40
2024-03-05T02:02:07.125Z,13.30
2024-03-05T02:04:38.012Z,13.30
2024-03-05T02:07:07.242Z,13.30
2024-03-05T02:09:34.310Z,13.30
2024-03-05T02:12:04.163Z,13.30
2024-03-05T02:14:31.968Z,13.30
2024-03-05T02:17:00.778Z,13.30
2024-03-05T02:19:28.016Z,13.30
2024-03-05T02:21:59.599Z,13.30
2024-03-05T02:24:26.546Z,13.30
2024-03-05T02:26:53.519Z,13.30
2024-03-05T02:29:21.101Z,13.30
2024-03-05T02:31:48.734Z,13.20
2024-03-05T02:34:16.039Z,13.20
2024-03-05T02:36:43.097Z,13.20
2024-03-05T02:39:11.521Z,13.20
2024-03-05T02:41:38.502Z,13.20
2024-03-05T02:44:05.720Z,13.20
2024-03-05T02:46:32.799Z,13.20
2024-03-05T02:48:59.852Z,13.20
2024-03-05T02:51:26.932Z,13.20
2024-03-05T02:53:53.979Z,13.10
2024-03-05T02:56:22.336Z,13.10
2024-03-05T02:58:49.365Z,13.10
2024-03-05T03:01:16.448Z,13.10
2024-03-05T03:03:43.526Z,13.10
2024-03-05T03:06:16.468Z,13.10
2024-03-05T03:08:43.511Z,13.10
2024-03-05T03:11:15.912Z,13.10
2024-03-05T03:13:45.596Z,13.10
2024-03-05T03:16:12.869Z,13.10
2024-03-05T03:18:39.830Z,13.10
2024-03-05T03:21:06.804Z,13.10
2024-03-05T03:23:34.099Z,13.10
2024-03-05T03:28:47.000Z,13.00
2024-03-05T03:31:14.153Z,13.00
2024-03-05T03:36:25.827Z,13.00
2024-03-05T03:38:53.062Z,13.00
2024-03-05T03:44:05.984Z,13.00
2024-03-05T03:46:33.044Z,13.00
2024-03-05T03:49:00.033Z,12.90
2024-03-05T03:51:27.061Z,13.00
2024-03-05T03:53:54.043Z,12.90
2024-03-05T03:56:21.106Z,12.90
2024-03-05T03:58:48.163Z,12.90
2024-03-05T04:01:16.789Z,12.90
2024-03-05T04:03:43.914Z,12.90
2024-03-05T04:06:10.959Z,12.90
2024-03-05T04:08:37.933Z,12.90
2024-03-05T04:11:05.148Z,12.90
2024-03-05T04:16:18.376Z,12.90
2024-03-05T04:18:45.386Z,12.90
2024-03-05T04:21:12.535Z,12.90
2024-03-05T04:23:40.349Z,12.90
2024-03-05T04:26:07.308Z,12.80
2024-03-05T04:28:44.805Z,12.80
2024-03-05T04:31:11.841Z,12.80
2024-03-05T04:33:40.235Z,12.80
2024-03-05T04:36:07.719Z,12.90
2024-03-05T04:38:34.659Z,12.90
2024-03-05T04:41:01.734Z,12.80
2024-03-05T04:43:28.740Z,12.80
2024-03-05T04:45:55.726Z,12.80
2024-03-05T04:48:22.734Z,12.80
2024-03-05T04:50:52.019Z,12.80
2024-03-05T04:53:19.129Z,12.80
2024-03-05T04:55:46.167Z,12.80
2024-03-05T05:00:57.720Z,12.80
2024-03-05T05:03:24.847Z,12.80
2024-03-05T05:05:53.226Z,12.80
2024-03-05T05:08:20.931Z,12.80
2024-03-05T05:10:48.090Z,12.70
2024-03-05T05:13:15.261Z,12.70
2024-03-05T05:15:42.531Z,12.70
2024-03-05T05:18:09.709Z,12.70
2024-03-05T05:20:36.702Z,12.70
2024-03-05T05:23:05.370Z,12.70
2024-03-05T05:25:32.782Z,12.70
2024-03-05T05:27:59.852Z,12.70
2024-03-05T05:30:26.782Z,12.70
2024-03-05T05:32:53.915Z,12.70
2024-03-05T05:35:21.030Z,12.70
2024-03-05T05:37:48.113Z,12.70
2024-03-05T05:40:19.713Z,12.70
2024-03-05T05:42:49.313Z,12.70
2024-03-05T05:45:16.341Z,12.70
2024-03-05T05:47:44.421Z,12.70
2024-03-05T05:50:11.494Z,12.70
2024-03-05T05:52:38.557Z,12.60
2024-03-05T05:55:05.905Z,12.60
2024-03-05T06:00:20.605Z,12.60
2024-03-05T06:02:47.692Z,12.60
2024-03-05T06:05:14.896Z,12.60
2024-03-05T06:07:41.902Z,12.60
2024-03-05T06:10:09.958Z,12.50
2024-03-05T06:12:38.688Z,12.50
2024-03-05T06:15:06.269Z,12.50
2024-03-05T06:17:33.349Z,12.50
2024-03-05T06:20:00.597Z,12.50
2024-03-05T06:22:33.881Z,12.40
2024-03-05T06:25:01.850Z,12.40
2024-03-05T06:27:28.795Z,12.40
2024-03-05T06:29:57.185Z,12.40
2024-03-05T06:32:24.212Z,12.40
2024-03-05T06:34:51.382Z,12.40
2024-03-05T06:37:18.503Z,12.40
2024-03-05T06:39:45.496Z,12.40
2024-03-05T06:42:12.457Z,12.40
2024-03-05T06:44:39.429Z,12.40
2024-03-05T06:47:08.226Z,12.40
2024-03-05T06:49:36.501Z,12.40
2024-03-05T06:52:03.782Z,12.40
2024-03-05T06:54:30.944Z,12.40
2024-03-05T06:56:57.888Z,12.40
2024-03-05T06:59:24.850Z,12.40
2024-03-05T07:01:51.809Z,12.40
2024-03-05T07:04:20.274Z,12.40
2024-03-05T07:06:47.222Z,12.40
2024-03-05T07:09:14.277Z,12.40
2024-03-05T07:11:41.251Z,12.40
2024-03-05T07:14:08.326Z,12.40
2024-03-05T07:16:35.297Z,12.40
2024-03-05T07:21:47.865Z,12.40
2024-03-05T07:24:14.774Z,12.40
2024-03-05T07:26:49.538Z,12.40
2024-03-05T07:29:19.920Z,12.40
2024-03-05T07:31:46.930Z,12.40
2024-03-05T07:34:13.974Z,12.40
2024-03-05T07:36:40.949Z,12.40
2024-03-05T07:39:09.445Z,12.40
2024-03-05T07:41:36.570Z,12.40
2024-03-05T07:44:05.064Z,12.40
2024-03-05T07:46:33.014Z,12.40
2024-03-05T07:49:00.034Z,12.40
2024-03-05T07:51:29.346Z,12.40
2024-03-05T07:54:00.591Z,12.40
2024-03-05T07:56:29.002Z,12.40
2024-03-05T07:59:14.880Z,12.50
2024-03-05T08:01:42.134Z,12.50
2024-03-05T08:04:09.620Z,12.50
2024-03-05T08:06:36.567Z,12.50
2024-03-05T08:09:03.643Z,12.50
2024-03-05T08:11:32.108Z,12.50
2024-03-05T08:13:59.280Z,12.50
2024-03-05T08:16:26.348Z,12.50
2024-03-05T08:18:53.343Z,12.50
2024-03-05T08:21:20.296Z,12.50
2024-03-05T08:23:47.234Z,12.50
2024-03-05T08:26:14.264Z,12.50
2024-03-05T08:28:42.716Z,12.50
2024-03-05T08:31:09.738Z,12.50
2024-03-05T08:33:36.785Z,12.50
2024-03-05T08:36:04.202Z,12.50
2024-03-05T08:38:31.233Z,12.50
2024-03-05T08:40:58.279Z,12.50
2024-03-05T08:43:25.375Z,12.50
2024-03-05T08:45:53.852Z,12.50
2024-03-05T08:48:20.906Z,12.50
2024-03-05T08:50:48.001Z,12.50
2024-03-05T08:53:14.991Z,12.50
2024-03-05T08:55:45.271Z,12.50
2024-03-05T08:58:12.346Z,12.40
2024-03-05T09:00:43.188Z,12.40
2024-03-05T09:03:12.455Z,12.40
2024-03-05T09:08:23.612Z,12.50
2024-03-05T09:10:50.830Z,12.40
2024-03-05T09:13:17.926Z,12.40
2024-03-05T09:15:45.175Z,12.50
2024-03-05T09:18:14.286Z,12.50
2024-03-05T09:20:42.690Z,12.50
2024-03-05T09:23:09.746Z,12.50
2024-03-05T09:25:36.861Z,12.50
2024-03-05T09:28:04.344Z,12.50
2024-03-05T09:30:31.329Z,12.60
2024-03-05T09:32:58.331Z,12.60
2024-03-05T09:35:26.890Z,12.60
2024-03-05T09:37:53.919Z,12.60
2024-03-05T09:40:22.309Z,12.60
2024-03-05T09:42:49.423Z,12.70
2024-03-05T09:45:18.372Z,12.70
2024-03-05T09:47:48.735Z,12.70
2024-03-05T09:50:18.686Z,12.70
2024-03-05T09:52:48.927Z,12.70
2024-03-05T09:55:16.724Z,12.70
2024-03-05T09:57:48.431Z,12.70
2024-03-05T10:00:16.122Z,12.70
2024-03-05T10:02:43.730Z,12.70
2024-03-05T10:05:11.499Z,12.70
2024-03-05T10:07:38.659Z,12.70
2024-03-05T10:10:09.150Z,12.70
2024-03-05T10:12:36.205Z,12.70
2024-03-05T10:15:12.873Z,12.70
2024-03-05T10:17:43.380Z,12.70
2024-03-05T10:20:11.216Z,12.70
2024-03-05T10:22:38.265Z,12.70
2024-03-05T10:25:16.004Z,12.70
2024-03-05T10:27:46.832Z,12.70
2024-03-05T10:33:09.600Z,12.70
2024-03-05T10:35:37.104Z,12.70
2024-03-05T10:38:05.854Z,12.70
2024-03-05T10:40:35.229Z,12.80
2024-03-05T10:43:03.643Z,12.80
2024-03-05T10:45:33.307Z,12.80
2024-03-05T10:48:01.390Z,12.80
2024-03-05T10:50:29.562Z,12.80
2024-03-05T10:52:58.013Z,12.90
2024-03-05T10:55:26.045Z,12.90
2024-03-05T10:57:55.091Z,12.90
2024-03-05T11:00:22.269Z,12.90
2024-03-05T11:02:49.297Z,12.90
2024-03-05T11:05:18.722Z,12.90
2024-03-05T11:07:46.272Z,12.90
2024-03-05T11:10:13.378Z,13.00
2024-03-05T11:12:40.967Z,13.00
2024-03-05T11:15:11.328Z,13.00
2024-03-05T11:17:38.381Z,13.00
2024-03-05T11:20:08.966Z,13.00
2024-03-05T11:22:36.080Z,13.10
2024-03-05T11:25:05.368Z,13.10
2024-03-05T11:27:34.645Z,13.10
2024-03-05T11:30:06.503Z,13.10
2024-03-05T11:35:20.958Z,13.10
2024-03-05T11:37:50.786Z,13.10
2024-03-05T11:40:19.519Z,13.10
2024-03-05T11:42:47.198Z,13.10
2024-03-05T11:45:47.479Z,13.10
2024-03-05T11:48:17.187Z,13.10
2024-03-05T11:50:45.866Z,13.10
2024-03-05T11:53:13.526Z,13.10
2024-03-05T11:55:41.057Z,13.20
2024-03-05T11:58:08.091Z,13.20
2024-03-05T12:00:35.419Z,13.20
2024-03-05T12:03:02.513Z,13.20
2024-03-05T12:05:31.340Z,13.20
2024-03-05T12:07:59.757Z,13.20
2024-03-05T12:10:28.183Z,13.30
2024-03-05T12:12:55.175Z,13.30
2024-03-05T12:15:22.243Z,13.30
2024-03-05T12:17:49.276Z,13.30
2024-03-05T12:20:20.758Z,13.30
2024-03-05T12:22:54.646Z,13.30
2024-03-05T12:25:22.805Z,13.30
2024-03-05T12:27:50.213Z,13.40
2024-03-05T12:30:17.852Z,13.40
2024-03-05T12:32:51.549Z,13.40
2024-03-05T12:35:18.667Z,13.40
2024-03-05T12:40:18.320Z,13.40
2024-03-05T12:42:45.708Z,13.40
2024-03-05T12:45:13.214Z,13.40
2024-03-05T12:47:40.262Z,13.40
2024-03-05T12:50:09.542Z,13.40
2024-03-05T12:52:37.142Z,13.50
2024-03-05T12:55:05.599Z,13.50
2024-03-05T12:57:35.482Z,13.50
2024-03-05T13:00:05.953Z,13.50
2024-03-05T13:02:33.370Z,13.60
2024-03-05T13:05:01.146Z,13.60
2024-03-05T13:07:28.586Z,13.60
2024-03-05T13:09:56.125Z,13.60
2024-03-05T13:12:23.152Z,13.60
2024-03-05T13:14:51.462Z,13.60
2024-03-05T13:17:18.611Z,13.60
2024-03-05T13:22:30.360Z,13.60
2024-03-05T13:24:57.369Z,13.60
2024-03-05T13:27:24.307Z,13.60
2024-03-05T13:30:01.367Z,13.60
2024-03-05T13:32:36.635Z,13.60
2024-03-05T13:35:03.998Z,13.60
2024-03-05T13:37:31.124Z,13.60
2024-03-05T13:39:58.124Z,13.60
2024-03-05T13:42:25.135Z,13.60
2024-03-05T13:44:53.463Z,13.60
2024-03-05T13:47:20.442Z,13.70
2024-03-05T13:49:47.654Z,13.70
2024-03-05T13:52:14.704Z,13.70
2024-03-05T13:54:41.760Z,13.70
2024-03-05T13:57:08.746Z,13.70
2024-03-05T13:59:35.761Z,13.70
2024-03-05T14:02:04.502Z,13.70
2024-03-05T14:04:31.547Z,13.70
2024-03-05T14:06:58.540Z,13.80
2024-03-05T14:09:25.602Z,13.80
2024-03-05T14:11:52.584Z,13.80
2024-03-05T14:14:19.619Z,13.80
2024-03-05T14:16:46.665Z,13.80
2024-03-05T14:19:15.027Z,13.80
2024-03-05T14:21:42.172Z,13.80
2024-03-05T14:24:09.230Z,13.80
2024-03-05T14:26:36.298Z,13.80
2024-03-05T14:29:03.359Z,13.80
2024-03-05T14:31:30.657Z,13.80
2024-03-05T14:33:57.699Z,13.80
2024-03-05T14:36:26.178Z,13.90
2024-03-05T14:38:53.243Z,13.90
2024-03-05T14:41:20.277Z,13.90
2024-03-05T14:43:47.303Z,13.90
2024-03-05T14:46:14.328Z,13.90
2024-03-05T14:48:42.518Z,13.90
2024-03-05T14:53:55.617Z,14.00
2024-03-05T14:59:07.422Z,14.00
2024-03-05T15:01:35.299Z,14.00
2024-03-05T15:04:02.554Z,14.00
2024-03-05T15:06:29.621Z,14.00
2024-03-05T15:08:57.988Z,14.00
2024-03-05T15:11:25.197Z,14.00
2024-03-05T15:13:52.327Z,14.00
2024-03-05T15:16:19.295Z,14.00
2024-03-05T15:18:46.250Z,14.00
2024-03-05T15:21:13.231Z,14.00
2024-03-05T15:23:40.312Z,14.00
2024-03-05T15:26:09.107Z,14.00
2024-03-05T15:28:36.235Z,14.00
2024-03-05T15:31:03.435Z,14.00
2024-03-05T15:33:30.427Z,14.00
2024-03-05T15:35:57.427Z,14.00
2024-03-05T15:38:24.429Z,14.10
2024-03-05T15:40:51.515Z,14.10
2024-03-05T15:43:19.989Z,14.10
2024-03-05T15:45:47.080Z,14.10
2024-03-05T15:48:14.120Z,14.10
2024-03-05T15:50:41.132Z,14.10
2024-03-05T15:53:08.298Z,14.10
2024-03-05T15:55:35.296Z,14.20
2024-03-05T15:58:02.517Z,14.20
2024-03-05T16:00:33.810Z,14.20
2024-03-05T16:03:01.016Z,14.20
2024-03-05T16:05:33.612Z,14.20
2024-03-05T16:08:08.306Z,14.20
2024-03-05T16:10:41.915Z,14.20
2024-03-05T16:13:15.074Z,14.20
2024-03-05T16:15:43.587Z,14.20
2024-03-05T16:18:10.612Z,14.10
2024-03-05T16:20:37.706Z,14.10
2024-03-05T16:23:05.085Z,14.10
2024-03-05T16:25:32.698Z,14.10
2024-03-05T16:27:59.750Z,14.10
2024-03-05T16:30:27.912Z,14.10
2024-03-05T16:32:56.323Z,14.10
2024-03-05T16:35:24.636Z,14.10
2024-03-05T16:37:55.626Z,14.10
2024-03-05T16:40:24.331Z,14.10
2024-03-05T16:42:52.631Z,14.10
2024-03-05T16:45:20.595Z,14.10
2024-03-05T16:47:47.635Z,14.10
2024-03-05T16:50:16.107Z,14.10
2024-03-05T16:52:44.556Z,14.10
2024-03-05T16:55:12.237Z,14.00
2024-03-05T16:57:40.401Z,14.00
2024-03-05T17:00:08.743Z,14.00
2024-03-05T17:02:35.822Z,14.00
2024-03-05T17:05:03.434Z,14.00
2024-03-05T17:07:31.893Z,14.00
2024-03-05T17:09:59.563Z,14.00
2024-03-05T17:12:45.331Z,14.00
2024-03-05T17:15:12.461Z,14.00
2024-03-05T17:17:40.145Z,14.00
2024-03-05T17:20:09.772Z,14.00
2024-03-05T17:22:38.169Z,14.00
2024-03-05T17:25:05.994Z,14.00
2024-03-05T17:27:33.169Z,14.00
2024-03-05T17:30:00.321Z,14.00
2024-03-05T17:32:27.417Z,14.00
2024-03-05T17:34:54.465Z,14.00
2024-03-05T17:37:21.495Z,14.00
2024-03-05T17:39:49.889Z,14.00
2024-03-05T17:42:17.006Z,14.00
2024-03-05T17:44:44.916Z,13.90
2024-03-05T17:47:12.255Z,13.90
2024-03-05T17:49:39.689Z,13.90
2024-03-05T17:52:06.737Z,13.90
2024-03-05T17:54:33.754Z,13.90
2024-03-05T17:57:02.162Z,13.90
2024-03-05T17:59:29.137Z,13.90
2024-03-05T18:01:56.493Z,13.80
2024-03-05T18:04:23.687Z,13.70
2024-03-05T18:06:50.665Z,13.70
2024-03-05T18:09:17.995Z,13.60
2024-03-05T18:11:45.096Z,13.60
2024-03-05T18:14:13.803Z,13.60
2024-03-05T18:16:42.005Z,13.60
2024-03-05T18:19:09.279Z,13.50
2024-03-05T18:21:36.250Z,13.50
2024-03-05T18:24:03.482Z,13.50
2024-03-05T18:26:30.641Z,13.40
2024-03-05T18:28:57.760Z,13.40
2024-03-05T18:31:26.499Z,13.40
2024-03-05T18:33:53.598Z,13.40
2024-03-05T18:36:20.756Z,13.40
2024-03-05T18:38:47.819Z,13.40
2024-03-05T18:41:14.907Z,13.40
2024-03-05T18:43:42.030Z,13.40
2024-03-05T18:46:09.146Z,13.40
2024-03-05T18:48:37.598Z,13.30
2024-03-05T18:51:05.132Z,13.30
2024-03-05T18:53:39.614Z,13.30
2024-03-05T18:56:11.731Z,13.30
2024-03-05T18:58:38.887Z,13.30
2024-03-05T19:01:06.004Z,13.30
2024-03-05T19:03:33.192Z,13.30
2024-03-05T19:06:02.050Z,13.30
2024-03-05T19:08:29.087Z,13.30
2024-03-05T19:10:56.342Z,13.30
2024-03-05T19:13:23.388Z,13.20
2024-03-05T19:15:50.525Z,13.20
2024-03-05T19:18:17.541Z,13.20
2024-03-05T19:20:44.701Z,13.20
2024-03-05T19:23:13.270Z,13.20
2024-03-05T19:25:40.362Z,13.20
2024-03-05T19:28:07.486Z,13.20
2024-03-05T19:30:34.514Z,13.20
2024-03-05T19:33:04.791Z,13.10
2024-03-05T19:35:31.841Z,13.20
2024-03-05T19:40:45.578Z,13.10
2024-03-05T19:43:12.644Z,13.10
2024-03-05T19:45:58.053Z,13.10
2024-03-05T19:48:25.105Z,13.10
2024-03-05T19:50:52.196Z,13.10
2024-03-05T19:53:19.334Z,13.00
2024-03-05T19:55:47.844Z,13.10
2024-03-05T19:58:15.018Z,13.00
2024-03-05T20:00:42.011Z,13.00
2024-03-05T20:03:09.026Z,13.00
2024-03-05T20:05:36.058Z,13.00
2024-03-05T20:08:03.213Z,13.00
2024-03-05T20:10:30.384Z,13.00
2024-03-05T20:12:58.906Z,13.00
2024-03-05T20:15:25.964Z,13.00
2024-03-05T20:17:54.513Z,12.90
2024-03-05T20:20:21.570Z,12.90
2024-03-05T20:22:49.785Z,12.90
2024-03-05T20:25:20.156Z,12.90
2024-03-05T20:27:49.175Z,12.90
2024-03-05T20:30:18.005Z,12.90
2024-03-05T20:32:45.772Z,12.90
2024-03-05T20:35:14.289Z,12.90
2024-03-05T20:37:41.388Z,12.90
2024-03-05T20:40:09.772Z,12.90
2024-03-05T20:42:36.983Z,12.90
2024-03-05T20:45:04.487Z,12.90
2024-03-05T20:47:33.319Z,12.90
2024-03-05T20:50:00.483Z,12.80
2024-03-05T20:52:27.577Z,12.80
2024-03-05T20:54:54.593Z,12.80
2024-03-05T20:57:22.168Z,12.80
2024-03-05T20:59:49.292Z,12.80
2024-03-05T21:02:16.424Z,12.80
2024-03-05T21:04:44.897Z,12.80
2024-03-05T21:07:12.029Z,12.80
2024-03-05T21:09:39.064Z,12.80
2024-03-05T21:12:06.369Z,12.70
2024-03-05T21:14:33.368Z,12.70
2024-03-05T21:17:00.536Z,12.70
2024-03-05T21:19:27.728Z,12.70
2024-03-05T21:21:56.688Z,12.70
2024-03-05T21:24:23.767Z,12.70
2024-03-05T21:27:09.528Z,12.70
2024-03-05T21:29:37.889Z,12.70
2024-03-05T21:34:49.743Z,12.60
2024-03-05T21:37:18.178Z,12.60
2024-03-05T21:39:45.155Z,12.60
2024-03-05T21:42:12.240Z,12.60
2024-03-05T21:47:08.312Z,12.60
2024-03-05T21:49:35.595Z,12.50
2024-03-05T21:52:02.788Z,12.50
2024-03-05T21:54:31.326Z,12.50
2024-03-05T21:56:58.417Z,12.50
2024-03-05T21:59:25.553Z,12.50
2024-03-05T22:01:52.869Z,12.50
2024-03-05T22:04:19.844Z,12.50
2024-03-05T22:06:46.943Z,12.50
2024-03-05T22:09:13.944Z,12.40
2024-03-05T22:11:43.233Z,12.40
2024-03-05T22:14:11.835Z,12.40
2024-03-05T22:16:39.705Z,12.40
2024-03-05T22:19:08.006Z,12.40
2024-03-05T22:21:36.021Z,12.40
2024-03-05T22:24:06.563Z,12.40
2024-03-05T22:26:33.590Z,12.40
2024-03-05T22:29:02.564Z,12.40
2024-03-05T22:31:29.846Z,12.30
2024-03-05T22:33:57.001Z,12.30
2024-03-05T22:36:24.073Z,12.30
2024-03-05T22:38:51.203Z,12.30
2024-03-05T22:41:18.452Z,12.30
2024-03-05T22:43:45.669Z,12.30
2024-03-05T22:46:14.177Z,12.30
2024-03-05T22:48:41.610Z,12.30
2024-03-05T22:51:08.881Z,12.30
2024-03-05T22:53:36.007Z,12.30
2024-03-05T22:58:47.397Z,12.30
2024-03-05T23:01:15.911Z,12.30
2024-03-05T23:03:43.013Z,12.30
2024-03-05T23:06:15.667Z,12.20
2024-03-05T23:08:45.914Z,12.20
2024-03-05T23:11:13.110Z,12.20
2024-03-05T23:13:40.205Z,12.20
2024-03-05T23:16:07.495Z,12.20
2024-03-05T23:18:35.885Z,12.10
2024-03-05T23:21:02.889Z,12.10
2024-03-05T23:23:30.053Z,12.10
2024-03-05T23:25:57.052Z,12.10
2024-03-05T23:28:24.051Z,12.00
2024-03-05T23:30:51.035Z,12.00
2024-03-05T23:33:18.078Z,12.00
2024-03-05T23:35:46.709Z,12.00
2024-03-05T23:38:13.889Z,11.90
2024-03-05T23:40:40.997Z,11.90
2024-03-05T23:43:08.041Z,11.90
2024-03-05T23:45:35.046Z,11.90
2024-03-05T23:48:02.076Z,11.90
2024-03-05T23:53:15.436Z,11.90
2024-03-05T23:55:42.541Z,11.90
2024-03-05T23:58:09.576Z,11.80
